Time;durP1;ratioP1;P1;durP2;ratioP2;P2;SDS_P1;SDS_P2;PMS_P1;PMS_P2;Temp;Humidity;BMP_temperature;BMP_pressure;BME280_temperature;BME280_humidity;BME280_pressure;Samples;Min_cycle;Max_cycle;Signal;HPM_P1;HPM_P2
2020/12/25 00:02:59;;;;;;;6.60;1.40;;;1.30;99.90;;;;;;8229644;28;20060;-74
2020/12/25 00:07:03;;;;;;;10.77;1.73;;;1.80;99.90;;;;;;8236142;28;20054;-73
2020/12/25 00:11:07;;;;;;;9.52;1.58;;;0.80;99.90;;;;;;8247687;28;20062;-73
2020/12/25 00:15:09;;;;;;;11.95;1.85;;;0.80;99.90;;;;;;8235806;28;20054;-73
2020/12/25 00:19:10;;;;;;;7.43;1.40;;;0.70;99.90;;;;;;8225997;28;20038;-74
2020/12/25 00:23:12;;;;;;;7.70;1.38;;;0.50;99.90;;;;;;8235230;28;20464;-73
2020/12/25 00:27:13;;;;;;;4.45;1.33;;;0.90;99.90;;;;;;8233008;28;20050;-73
2020/12/25 00:31:28;;;;;;;8.80;1.50;;;0.30;99.90;;;;;;8234699;28;20108;-73
2020/12/25 00:35:31;;;;;;;7.95;1.85;;;0.60;99.90;;;;;;8230834;28;20531;-73
2020/12/25 00:39:32;;;;;;;7.63;1.92;;;0.50;99.90;;;;;;8256304;28;20047;-74
2020/12/25 00:43:34;;;;;;;10.73;2.00;;;0.60;99.90;;;;;;8218793;28;20806;-73
2020/12/25 00:47:35;;;;;;;8.40;1.92;;;0.50;99.90;;;;;;8233283;28;20145;-73
2020/12/25 00:51:37;;;;;;;5.70;1.30;;;0.40;99.90;;;;;;8217395;28;20051;-74
2020/12/25 00:55:39;;;;;;;6.10;1.50;;;0.60;99.90;;;;;;8244006;28;20081;-73
2020/12/25 00:59:41;;;;;;;9.02;1.55;;;0.60;99.90;;;;;;8214358;28;20138;-73
2020/12/25 01:03:44;;;;;;;7.80;1.38;;;0.50;99.90;;;;;;8232366;28;20524;-73
2020/12/25 01:07:46;;;;;;;8.90;1.30;;;0.70;99.90;;;;;;8215690;28;20545;-73
2020/12/25 01:11:47;;;;;;;5.63;1.37;;;0.40;99.90;;;;;;8218163;28;20065;-73
2020/12/25 01:15:49;;;;;;;6.30;2.10;;;0.70;99.90;;;;;;8241936;28;20476;-74
2020/12/25 01:19:50;;;;;;;8.20;1.20;;;1.60;99.90;;;;;;8227878;28;20496;-74
2020/12/25 01:23:52;;;;;;;10.90;1.52;;;-0.20;99.90;;;;;;8236720;28;20116;-74
2020/12/25 01:27:53;;;;;;;7.63;1.83;;;0.50;99.90;;;;;;8231854;28;20100;-74
2020/12/25 01:31:55;;;;;;;4.93;1.25;;;0.50;99.90;;;;;;8237416;28;20062;-74
2020/12/25 01:36:07;;;;;;;5.60;1.50;;;1.50;99.90;;;;;;8235579;28;20137;-73
2020/12/25 01:40:08;;;;;;;7.65;1.55;;;0.20;99.90;;;;;;8245850;28;20047;-73
2020/12/25 01:44:10;;;;;;;5.50;1.40;;;0.30;99.90;;;;;;8214643;28;20038;-73
2020/12/25 01:48:12;;;;;;;6.32;1.42;;;0.20;99.90;;;;;;8241263;28;20515;-73
2020/12/25 01:52:14;;;;;;;8.00;1.30;;;0.20;99.90;;;;;;8230286;28;20412;-73
2020/12/25 01:56:17;;;;;;;7.68;1.27;;;0.10;99.90;;;;;;8238297;28;20109;-73
2020/12/25 02:00:19;;;;;;;11.02;1.88;;;0.40;99.90;;;;;;8239865;28;20042;-72
2020/12/25 02:04:21;;;;;;;;;;;0.40;99.90;;;;;;8222240;28;20054;-73
2020/12/25 02:08:22;;;;;;;3.80;1.38;;;0.80;99.90;;;;;;8245968;28;19921;-72
2020/12/25 02:12:24;;;;;;;4.20;1.33;;;0.20;99.90;;;;;;8222125;28;20055;-73
2020/12/25 02:16:25;;;;;;;8.50;1.48;;;0.30;99.90;;;;;;8220948;28;20046;-73
2020/12/25 02:20:27;;;;;;;12.77;1.77;;;0.30;99.90;;;;;;8223290;28;20124;-73
2020/12/25 02:24:28;;;;;;;10.18;2.40;;;0.20;99.90;;;;;;8251904;28;20590;-73
2020/12/25 02:28:30;;;;;;;8.00;1.17;;;0.30;99.90;;;;;;8231010;28;20112;-73
2020/12/25 02:32:35;;;;;;;8.80;1.48;;;0.40;99.90;;;;;;8235124;28;20577;-74
2020/12/25 02:36:47;;;;;;;8.70;1.10;;;0.40;99.90;;;;;;8239023;28;20058;-73
2020/12/25 02:40:48;;;;;;;4.43;1.02;;;0.30;99.90;;;;;;8221346;28;20077;-73
2020/12/25 02:44:50;;;;;;;4.13;1.08;;;0.40;99.90;;;;;;8229110;28;20059;-73
2020/12/25 02:48:51;;;;;;;5.95;1.05;;;1.10;99.90;;;;;;8236806;28;20062;-74
2020/12/25 02:52:53;;;;;;;4.57;1.35;;;0.20;99.90;;;;;;8221445;28;20527;-73
2020/12/25 02:56:54;;;;;;;6.95;1.17;;;1.40;99.90;;;;;;8238392;28;20141;-73
2020/12/25 03:00:55;;;;;;;5.05;1.20;;;1.00;99.90;;;;;;8219083;28;20474;-73
2020/12/25 03:04:57;;;;;;;5.70;1.35;;;0.20;99.90;;;;;;8226746;28;20486;-73
2020/12/25 03:08:58;;;;;;;8.75;1.10;;;0.20;99.90;;;;;;8234682;28;20039;-72
2020/12/25 03:13:03;;;;;;;8.32;1.42;;;0.30;99.90;;;;;;8223689;28;20058;-73
2020/12/25 03:17:04;;;;;;;7.53;1.45;;;0.50;99.80;;;;;;8234254;28;20081;-74
2020/12/25 03:21:05;;;;;;;4.28;0.98;;;0.20;99.90;;;;;;8228975;28;20503;-75
2020/12/25 03:25:07;;;;;;;8.77;1.50;;;0.20;99.90;;;;;;8231992;28;20042;-74
2020/12/25 03:29:08;;;;;;;4.35;1.35;;;0.30;99.90;;;;;;8221396;28;20050;-75
2020/12/25 03:33:10;;;;;;;4.22;0.98;;;0.20;99.90;;;;;;8236147;28;20061;-74
2020/12/25 03:37:24;;;;;;;9.27;1.58;;;0.10;99.90;;;;;;8221090;28;20134;-73
2020/12/25 03:41:25;;;;;;;5.27;1.33;;;0.20;99.90;;;;;;8210362;28;20099;-73
2020/12/25 03:45:27;;;;;;;7.53;1.55;;;0.10;99.90;;;;;;8242596;28;20492;-73
2020/12/25 03:49:29;;;;;;;4.97;1.23;;;0.20;99.90;;;;;;8232732;28;20062;-73
2020/12/25 03:53:30;;;;;;;6.53;1.23;;;-0.20;99.90;;;;;;8229754;28;20061;-73
2020/12/25 03:57:32;;;;;;;8.95;2.58;;;0.60;99.90;;;;;;8224381;28;20058;-73
2020/12/25 04:01:33;;;;;;;6.00;1.27;;;0.20;99.90;;;;;;8220313;28;20050;-74
2020/12/25 04:05:35;;;;;;;3.15;1.10;;;0.00;99.90;;;;;;8213964;28;20105;-73
2020/12/25 04:09:36;;;;;;;4.97;1.80;;;0.00;99.90;;;;;;8235547;28;20061;-73
2020/12/25 04:13:38;;;;;;;3.13;1.10;;;0.10;99.90;;;;;;8238985;28;20485;-74
2020/12/25 04:17:39;;;;;;;4.28;1.30;;;0.10;99.80;;;;;;8239374;28;20043;-72
2020/12/25 04:21:41;;;;;;;6.93;1.35;;;0.10;99.90;;;;;;8218618;28;20054;-73
2020/12/25 04:25:43;;;;;;;9.10;1.40;;;-0.10;99.90;;;;;;8217135;28;20468;-72
2020/12/25 04:29:44;;;;;;;2.90;0.90;;;-0.10;99.90;;;;;;8220329;28;20050;-73
2020/12/25 04:33:46;;;;;;;12.52;1.60;;;0.20;99.90;;;;;;8245348;28;20566;-72
2020/12/25 04:38:05;;;;;;;3.53;1.25;;;0.40;99.90;;;;;;8231222;28;20058;-72
2020/12/25 04:42:07;;;;;;;3.92;1.23;;;0.10;99.90;;;;;;8216965;28;20072;-72
2020/12/25 04:46:08;;;;;;;8.10;1.63;;;0.00;99.90;;;;;;8217761;28;20116;-72
2020/12/25 04:50:10;;;;;;;11.73;1.67;;;0.00;99.90;;;;;;8232917;28;20105;-73
2020/12/25 04:54:11;;;;;;;4.53;1.00;;;0.10;99.90;;;;;;8244616;28;20065;-73
2020/12/25 04:58:13;;;;;;;6.30;1.48;;;0.00;99.90;;;;;;8215913;28;20137;-73
2020/12/25 05:02:14;;;;;;;4.65;1.10;;;-0.10;99.70;;;;;;8232173;28;20086;-73
2020/12/25 05:06:18;;;;;;;7.50;2.10;;;0.00;99.90;;;;;;8218006;28;20511;-74
2020/12/25 05:10:19;;;;;;;5.43;1.20;;;0.00;99.90;;;;;;8238241;28;20121;-73
2020/12/25 05:14:28;;;;;;;8.68;1.20;;;1.30;99.90;;;;;;8233090;28;20429;-74
2020/12/25 05:18:31;;;;;;;6.40;0.98;;;-0.10;99.30;;;;;;8229129;28;20050;-74
2020/12/25 05:22:35;;;;;;;4.45;1.52;;;0.00;99.90;;;;;;8209672;28;20089;-73
2020/12/25 05:26:37;;;;;;;4.53;1.02;;;0.90;99.90;;;;;;8237249;28;20430;-73
2020/12/25 05:30:43;;;;;;;8.65;1.00;;;-0.10;99.70;;;;;;8264961;28;20105;-74
2020/12/25 05:34:47;;;;;;;7.80;1.42;;;-0.10;99.90;;;;;;8221356;28;20066;-75
2020/12/25 05:38:49;;;;;;;6.32;1.70;;;-0.10;99.90;;;;;;8240635;28;20058;-75
2020/12/25 05:42:51;;;;;;;6.32;1.10;;;0.70;99.90;;;;;;8227300;28;20116;-75
2020/12/25 05:46:53;;;;;;;4.65;1.05;;;-0.30;99.80;;;;;;8240833;28;20074;-73
2020/12/25 05:50:54;;;;;;;7.43;1.40;;;-0.10;99.80;;;;;;8238857;28;20785;-73
2020/12/25 05:54:57;;;;;;;6.35;1.38;;;1.10;99.90;;;;;;8238080;28;20062;-73
2020/12/25 05:59:00;;;;;;;11.10;1.60;;;-0.10;99.90;;;;;;8235130;28;20054;-73
2020/12/25 06:03:01;;;;;;;2.88;1.00;;;-0.10;99.90;;;;;;8222839;28;20500;-74
2020/12/25 06:07:08;;;;;;;6.72;1.27;;;-0.20;99.80;;;;;;8247431;28;20061;-73
2020/12/25 06:11:10;;;;;;;4.60;1.17;;;0.10;99.90;;;;;;8235761;28;20594;-73
2020/12/25 06:15:18;;;;;;;3.63;1.38;;;-0.20;99.90;;;;;;8218410;28;20069;-74
2020/12/25 06:19:44;;;;;;;4.95;1.20;;;-0.20;99.90;;;;;;8236481;28;20085;-72
2020/12/25 06:23:46;;;;;;;5.18;1.50;;;-0.30;99.90;;;;;;8200001;28;20050;-74
2020/12/25 06:27:59;;;;;;;;;;;-0.20;99.90;;;;;;8245606;28;20668;-73
2020/12/25 06:32:04;;;;;;;8.32;1.40;;;-0.40;99.90;;;;;;8217628;28;19925;-73
2020/12/25 06:36:06;;;;;;;5.40;1.30;;;-0.30;99.90;;;;;;8239684;28;20050;-73
2020/12/25 06:40:07;;;;;;;6.68;1.42;;;-0.30;99.90;;;;;;8234186;28;20479;-73
2020/12/25 06:44:17;;;;;;;4.53;1.00;;;-0.50;99.90;;;;;;8243311;28;20051;-73
2020/12/25 06:48:20;;;;;;;9.65;2.08;;;-0.50;99.90;;;;;;8232477;28;20050;-73
2020/12/25 06:52:29;;;;;;;7.47;1.38;;;-0.50;99.80;;;;;;8232056;28;20054;-73
2020/12/25 06:56:40;;;;;;;8.15;1.52;;;0.10;99.90;;;;;;8218293;28;20093;-73
2020/12/25 07:00:41;;;;;;;7.55;1.35;;;-0.50;99.90;;;;;;8237881;28;20058;-73
2020/12/25 07:04:43;;;;;;;5.47;1.52;;;-0.60;99.80;;;;;;8229806;28;20137;-69
2020/12/25 07:08:52;;;;;;;2.72;1.05;;;-0.60;99.80;;;;;;8236582;28;20496;-72
2020/12/25 07:12:54;;;;;;;4.32;1.17;;;0.90;99.90;;;;;;8217516;28;20574;-73
2020/12/25 07:16:56;;;;;;;8.27;2.10;;;-0.60;99.70;;;;;;8218639;28;20061;-73
2020/12/25 07:20:59;;;;;;;3.93;1.37;;;-0.50;99.70;;;;;;8248857;28;20059;-73
2020/12/25 07:25:09;;;;;;;9.00;1.60;;;-0.40;99.80;;;;;;8224561;28;20825;-73
2020/12/25 07:29:13;;;;;;;4.38;1.45;;;-0.50;99.40;;;;;;8226398;28;20140;-73
2020/12/25 07:33:15;;;;;;;3.47;1.48;;;-0.60;99.80;;;;;;8235862;28;20072;-73
2020/12/25 07:37:17;;;;;;;5.25;1.90;;;-0.50;99.80;;;;;;8232639;28;20522;-73
2020/12/25 07:41:18;;;;;;;4.68;1.60;;;-0.40;99.70;;;;;;8240622;28;20053;-73
2020/12/25 07:45:20;;;;;;;3.90;1.20;;;-0.20;99.50;;;;;;8233374;28;20494;-74
2020/12/25 07:49:23;;;;;;;8.38;2.20;;;1.00;99.70;;;;;;8235114;28;20058;-73
2020/12/25 07:53:25;;;;;;;4.03;1.40;;;0.30;99.50;;;;;;8249307;28;20148;-73
2020/12/25 07:57:30;;;;;;;4.10;1.80;;;0.30;99.30;;;;;;8218879;28;20050;-73
2020/12/25 08:01:33;;;;;;;7.22;1.50;;;0.40;99.20;;;;;;8201409;28;20054;-73
2020/12/25 08:05:36;;;;;;;3.80;1.55;;;0.20;99.00;;;;;;8242037;28;20058;-73
2020/12/25 08:09:42;;;;;;;4.18;1.70;;;0.20;98.90;;;;;;8216962;28;20054;-73
2020/12/25 08:13:48;;;;;;;2.90;1.17;;;0.50;98.80;;;;;;8220646;28;20488;-74
2020/12/25 08:17:57;;;;;;;7.05;2.22;;;0.60;98.70;;;;;;8230925;28;20058;-73
2020/12/25 08:22:08;;;;;;;9.82;1.50;;;0.60;98.70;;;;;;8214734;28;20067;-73
2020/12/25 08:26:11;;;;;;;4.90;1.40;;;0.50;98.30;;;;;;8257485;28;20058;-73
2020/12/25 08:30:13;;;;;;;11.60;5.13;;;0.60;98.40;;;;;;8215223;28;20338;-73
2020/12/25 08:34:21;;;;;;;10.35;8.98;;;0.90;98.30;;;;;;8212908;28;20042;-73
2020/12/25 08:38:22;;;;;;;15.38;13.52;;;0.80;98.30;;;;;;8233426;28;20062;-73
2020/12/25 08:42:24;;;;;;;6.30;2.55;;;2.20;98.50;;;;;;8225321;28;20081;-73
2020/12/25 08:46:26;;;;;;;6.82;3.15;;;1.40;98.30;;;;;;8234202;28;20058;-73
2020/12/25 08:50:27;;;;;;;;;;;0.90;98.00;;;;;;8214767;28;20054;-73
2020/12/25 08:54:30;;;;;;;8.63;4.15;;;0.80;98.80;;;;;;8210275;28;20425;-74
2020/12/25 08:58:31;;;;;;;8.40;3.40;;;1.10;98.20;;;;;;8229485;28;20109;-73
2020/12/25 09:02:33;;;;;;;8.35;6.57;;;0.80;98.00;;;;;;8253645;28;20214;-73
2020/12/25 09:06:34;;;;;;;7.43;4.82;;;1.90;98.10;;;;;;8225999;28;20061;-73
2020/12/25 09:10:35;;;;;;;9.18;7.45;;;1.10;98.20;;;;;;8223725;28;20061;-73
2020/12/25 09:14:39;;;;;;;7.95;7.15;;;1.10;98.00;;;;;;8222436;28;20047;-73
2020/12/25 09:18:41;;;;;;;4.50;3.85;;;1.60;98.20;;;;;;8238031;28;20197;-73
2020/12/25 09:22:42;;;;;;;;;;;1.50;98.20;;;;;;8230322;28;20295;-68
2020/12/25 09:26:46;;;;;;;11.02;4.95;;;1.40;98.60;;;;;;8215082;28;19926;-69
2020/12/25 09:30:48;;;;;;;10.35;2.50;;;0.90;98.10;;;;;;8193718;28;20113;-68
2020/12/25 09:34:49;;;;;;;11.27;3.20;;;0.80;98.20;;;;;;8233419;28;20058;-69
2020/12/25 09:38:51;;;;;;;8.02;1.77;;;0.60;98.40;;;;;;8238040;28;20054;-69
2020/12/25 09:42:52;;;;;;;4.20;1.23;;;0.50;98.70;;;;;;8213965;28;20077;-68
2020/12/25 09:46:54;;;;;;;5.78;2.65;;;0.30;98.70;;;;;;8215273;28;20471;-69
2020/12/25 09:50:56;;;;;;;11.32;3.70;;;0.30;98.80;;;;;;8213263;28;20050;-68
2020/12/25 09:54:57;;;;;;;;;;;0.30;98.80;;;;;;8218481;28;20057;-68
2020/12/25 09:58:59;;;;;;;13.90;5.97;;;0.10;99.20;;;;;;8245592;28;19965;-69
2020/12/25 10:03:03;;;;;;;12.80;5.35;;;0.10;98.90;;;;;;8228110;28;20065;-69
2020/12/25 10:07:05;;;;;;;23.23;10.63;;;0.60;99.20;;;;;;8228966;28;20129;-69
2020/12/25 10:11:09;;;;;;;37.05;18.13;;;0.50;99.00;;;;;;8222896;28;20042;-69
2020/12/25 10:15:10;;;;;;;13.00;4.50;;;0.80;99.10;;;;;;8231864;28;20058;-69
2020/12/25 10:19:12;;;;;;;13.88;5.47;;;-0.10;98.90;;;;;;8233853;28;20050;-70
2020/12/25 10:23:14;;;;;;;13.43;6.75;;;0.40;99.10;;;;;;8217820;28;20062;-70
2020/12/25 10:27:15;;;;;;;26.65;10.75;;;0.30;98.90;;;;;;8221386;28;20062;-70
2020/12/25 10:31:17;;;;;;;19.65;8.50;;;0.40;99.00;;;;;;8248022;28;20109;-70
2020/12/25 10:35:18;;;;;;;9.73;4.38;;;0.40;98.90;;;;;;8237963;28;20050;-70
2020/12/25 10:39:19;;;;;;;15.93;7.18;;;0.60;98.90;;;;;;8235911;28;20053;-70
2020/12/25 10:43:21;;;;;;;7.33;3.07;;;1.00;98.90;;;;;;8236553;28;20125;-70
2020/12/25 10:47:22;;;;;;;14.37;4.93;;;0.60;99.90;;;;;;8235482;28;20480;-70
2020/12/25 10:51:24;;;;;;;12.07;5.43;;;0.50;98.80;;;;;;8230669;28;20472;-70
2020/12/25 10:55:25;;;;;;;17.50;6.88;;;0.70;98.80;;;;;;8215975;28;20050;-70
2020/12/25 10:59:27;;;;;;;10.07;4.03;;;0.70;98.70;;;;;;8236761;28;20490;-69
2020/12/25 11:03:28;;;;;;;4.97;2.10;;;0.90;98.70;;;;;;8249037;28;20058;-70
2020/12/25 11:07:30;;;;;;;15.63;6.93;;;0.80;98.50;;;;;;8223481;28;20135;-69
2020/12/25 11:11:33;;;;;;;26.77;10.93;;;1.00;98.70;;;;;;8215109;28;20058;-70
2020/12/25 11:15:34;;;;;;;7.30;3.13;;;1.10;98.80;;;;;;8233147;28;20545;-69
2020/12/25 11:19:37;;;;;;;7.60;3.77;;;1.00;98.30;;;;;;8232960;28;20086;-69
2020/12/25 11:23:40;;;;;;;13.20;6.07;;;2.10;98.30;;;;;;8224759;28;20053;-69
2020/12/25 11:27:42;;;;;;;16.60;9.18;;;1.20;98.30;;;;;;8234613;28;20054;-71
2020/12/25 11:31:45;;;;;;;14.67;7.20;;;1.10;98.10;;;;;;8220743;28;20124;-70
2020/12/25 11:35:46;;;;;;;15.02;7.90;;;1.20;98.30;;;;;;8229276;28;20836;-69
2020/12/25 11:39:48;;;;;;;15.33;9.53;;;1.20;98.00;;;;;;8220745;28;20116;-69
2020/12/25 11:43:50;;;;;;;14.90;6.87;;;1.20;98.00;;;;;;8245236;28;20479;-69
2020/12/25 11:47:52;;;;;;;17.73;8.90;;;1.20;98.00;;;;;;8234902;28;20054;-70
2020/12/25 11:51:56;;;;;;;7.03;3.57;;;1.50;98.10;;;;;;8218826;28;20101;-69
2020/12/25 11:55:58;;;;;;;9.40;4.90;;;1.40;98.10;;;;;;8233776;28;20456;-69
2020/12/25 12:00:02;;;;;;;7.70;4.00;;;1.40;98.00;;;;;;8242051;28;20053;-69
2020/12/25 12:04:05;;;;;;;18.60;9.35;;;1.60;98.00;;;;;;8236267;28;20138;-69
2020/12/25 12:08:11;;;;;;;13.27;5.27;;;1.40;97.80;;;;;;8234776;28;20062;-69
2020/12/25 12:12:12;;;;;;;8.93;4.78;;;1.50;97.40;;;;;;8237679;28;20109;-69
2020/12/25 12:16:15;;;;;;;7.03;2.67;;;1.70;98.00;;;;;;8216837;28;20504;-69
2020/12/25 12:20:17;;;;;;;11.65;6.40;;;1.80;98.00;;;;;;8254706;28;20054;-69
2020/12/25 12:24:18;;;;;;;40.23;18.27;;;1.50;97.90;;;;;;8246793;28;20529;-69
2020/12/25 12:28:33;;;;;;;13.65;7.85;;;1.60;98.00;;;;;;8227315;28;20101;-69
2020/12/25 12:32:35;;;;;;;11.67;4.83;;;1.80;98.00;;;;;;8228343;28;20046;-69
2020/12/25 12:36:36;;;;;;;10.88;4.30;;;1.40;98.00;;;;;;8201637;28;22704;-70
2020/12/25 12:40:38;;;;;;;11.20;3.40;;;2.00;98.30;;;;;;8222430;28;20042;-70
2020/12/25 12:44:40;;;;;;;8.40;4.80;;;2.00;98.20;;;;;;8229047;28;20530;-70
2020/12/25 12:48:42;;;;;;;9.48;2.47;;;2.00;98.20;;;;;;8213619;28;20046;-69
2020/12/25 12:52:44;;;;;;;5.45;2.90;;;1.90;98.20;;;;;;8212029;28;20523;-69
2020/12/25 12:56:46;;;;;;;7.77;2.90;;;2.20;98.00;;;;;;8236295;28;20051;-70
2020/12/25 13:00:51;;;;;;;7.18;3.83;;;1.70;98.00;;;;;;8213404;28;20476;-70
2020/12/25 13:04:52;;;;;;;11.33;1.67;;;2.00;98.00;;;;;;8235462;28;20587;-70
2020/12/25 13:08:54;;;;;;;4.13;1.17;;;1.70;97.60;;;;;;8230260;28;20057;-70
2020/12/25 13:12:55;;;;;;;4.88;1.63;;;1.90;97.80;;;;;;8202289;28;20065;-69
2020/12/25 13:16:57;;;;;;;8.30;2.05;;;2.20;97.80;;;;;;8231936;28;20062;-70
2020/12/25 13:20:58;;;;;;;4.97;1.30;;;1.90;98.00;;;;;;8233320;28;20082;-70
2020/12/25 13:25:00;;;;;;;6.82;2.40;;;2.50;98.00;;;;;;8227756;28;20069;-70
2020/12/25 13:29:01;;;;;;;37.47;12.40;;;2.20;97.80;;;;;;8215499;28;20050;-70
2020/12/25 13:33:03;;;;;;;10.75;3.38;;;2.00;97.70;;;;;;8211719;28;20070;-70
2020/12/25 13:37:07;;;;;;;10.02;2.83;;;1.90;97.80;;;;;;8243280;28;20043;-69
2020/12/25 13:41:10;;;;;;;11.50;5.90;;;2.10;97.80;;;;;;8237133;28;20054;-69
2020/12/25 13:45:12;;;;;;;9.40;3.33;;;2.00;97.80;;;;;;8251445;28;20050;-70
2020/12/25 13:49:13;;;;;;;5.70;1.85;;;1.90;97.70;;;;;;8242575;28;20547;-70
2020/12/25 13:53:15;;;;;;;6.38;1.75;;;2.00;97.70;;;;;;8221381;28;20139;-69
2020/12/25 13:57:16;;;;;;;4.78;1.60;;;2.10;97.70;;;;;;8239010;28;20105;-70
2020/12/25 14:01:19;;;;;;;5.20;1.27;;;2.10;97.80;;;;;;8215679;28;20081;-70
2020/12/25 14:05:20;;;;;;;4.68;1.20;;;2.00;97.90;;;;;;8234424;28;20476;-70
2020/12/25 14:09:21;;;;;;;3.00;1.00;;;1.90;98.00;;;;;;8230547;28;20420;-70
2020/12/25 14:13:23;;;;;;;8.90;1.47;;;2.00;97.90;;;;;;8216585;28;20113;-70
2020/12/25 14:17:24;;;;;;;5.85;1.45;;;2.00;97.80;;;;;;8223423;28;20066;-70
2020/12/25 14:21:34;;;;;;;5.77;1.57;;;1.90;97.80;;;;;;8241693;28;20058;-70
2020/12/25 14:25:36;;;;;;;4.60;1.50;;;1.90;97.80;;;;;;8241532;28;20457;-69
2020/12/25 14:29:39;;;;;;;4.90;1.80;;;2.70;98.10;;;;;;8239135;28;20112;-69
2020/12/25 14:33:40;;;;;;;10.73;5.50;;;1.80;97.90;;;;;;8249065;28;20048;-70
2020/12/25 14:37:41;;;;;;;3.77;1.83;;;1.80;97.80;;;;;;8235267;28;20069;-70
2020/12/25 14:41:43;;;;;;;7.37;3.77;;;1.80;97.90;;;;;;8217816;28;20829;-70
2020/12/25 14:45:44;;;;;;;14.25;7.88;;;2.20;98.00;;;;;;8264042;28;20062;-70
2020/12/25 14:49:46;;;;;;;10.10;4.38;;;1.90;98.10;;;;;;8234961;28;20051;-70
2020/12/25 14:53:48;;;;;;;16.10;9.18;;;1.50;98.00;;;;;;8237640;28;20104;-70
2020/12/25 14:57:49;;;;;;;14.65;7.68;;;1.70;98.10;;;;;;8217275;28;20136;-69
2020/12/25 15:01:51;;;;;;;11.60;5.90;;;1.80;98.10;;;;;;8245605;28;27533;-70
2020/12/25 15:05:52;;;;;;;8.75;3.40;;;1.80;98.10;;;;;;8234288;28;20046;-70
2020/12/25 15:09:55;;;;;;;5.27;2.43;;;1.50;98.00;;;;;;8232673;28;20038;-69
2020/12/25 15:13:57;;;;;;;7.00;3.58;;;1.40;98.10;;;;;;8234079;28;20480;-69
2020/12/25 15:17:58;;;;;;;9.70;3.23;;;1.50;98.00;;;;;;8252223;28;20050;-70
2020/12/25 15:22:00;;;;;;;5.43;3.07;;;1.50;98.10;;;;;;8238755;28;20096;-69
2020/12/25 15:26:01;;;;;;;8.10;3.00;;;1.40;97.90;;;;;;8235146;28;20825;-70
2020/12/25 15:30:03;;;;;;;6.88;3.42;;;1.20;98.10;;;;;;8219638;28;20057;-69
2020/12/25 15:34:05;;;;;;;5.22;3.30;;;1.30;98.10;;;;;;8214850;28;20050;-70
2020/12/25 15:38:07;;;;;;;;;;;1.30;98.20;;;;;;8247094;28;20082;-70
2020/12/25 15:42:08;;;;;;;6.53;3.13;;;1.40;98.60;;;;;;8249803;28;19922;-70
2020/12/25 15:46:10;;;;;;;11.45;5.28;;;0.50;98.00;;;;;;8229108;28;20396;-69
2020/12/25 15:50:11;;;;;;;10.88;6.07;;;1.30;98.20;;;;;;8215734;28;20065;-70
2020/12/25 15:54:13;;;;;;;12.07;6.27;;;1.90;98.40;;;;;;8221366;28;20516;-70
2020/12/25 15:58:15;;;;;;;10.98;6.05;;;1.10;98.20;;;;;;8214415;28;20126;-70
2020/12/25 16:02:16;;;;;;;15.53;6.43;;;1.30;98.20;;;;;;8216510;28;21463;-70
2020/12/25 16:06:18;;;;;;;13.07;5.75;;;1.00;98.20;;;;;;8227866;28;20513;-70
2020/12/25 16:10:21;;;;;;;12.17;6.20;;;1.00;98.10;;;;;;8222949;28;20524;-69
2020/12/25 16:14:22;;;;;;;9.35;5.95;;;1.10;98.20;;;;;;8204598;28;20064;-70
2020/12/25 16:18:24;;;;;;;15.03;5.47;;;1.00;98.10;;;;;;8239612;28;20055;-69
2020/12/25 16:22:25;;;;;;;7.90;5.40;;;0.90;98.00;;;;;;8228101;28;20058;-69
2020/12/25 16:26:28;;;;;;;8.57;5.35;;;0.90;98.10;;;;;;8250636;28;21052;-70
2020/12/25 16:30:29;;;;;;;8.65;5.07;;;0.70;98.10;;;;;;8221914;28;20057;-70
2020/12/25 16:34:31;;;;;;;13.37;6.23;;;0.80;98.10;;;;;;8219137;28;20559;-69
2020/12/25 16:38:33;;;;;;;13.23;7.50;;;1.40;98.30;;;;;;8241560;28;20468;-69
2020/12/25 16:42:35;;;;;;;12.65;6.63;;;0.70;98.10;;;;;;8214193;28;20054;-69
2020/12/25 16:46:37;;;;;;;11.05;5.18;;;0.60;98.00;;;;;;8232731;28;21109;-70
2020/12/25 16:50:39;;;;;;;6.60;3.15;;;0.60;98.10;;;;;;8253279;28;20462;-70
2020/12/25 16:54:40;;;;;;;8.52;3.70;;;0.50;98.00;;;;;;8248792;28;20574;-69
2020/12/25 16:58:44;;;;;;;9.02;2.78;;;0.60;98.20;;;;;;8213768;28;20050;-69
2020/12/25 17:02:50;;;;;;;7.15;3.42;;;0.70;98.20;;;;;;8231732;28;20050;-70
2020/12/25 17:06:52;;;;;;;4.50;2.20;;;1.30;98.30;;;;;;8222751;28;20050;-70
2020/12/25 17:10:53;;;;;;;7.80;3.00;;;0.40;98.20;;;;;;8231296;28;20484;-73
2020/12/25 17:14:54;;;;;;;6.77;3.47;;;0.90;98.30;;;;;;8218564;28;20519;-73
2020/12/25 17:18:56;;;;;;;9.10;4.22;;;0.20;98.10;;;;;;8224617;28;20471;-72
2020/12/25 17:22:57;;;;;;;11.07;6.22;;;0.40;98.20;;;;;;8226438;28;20050;-73
2020/12/25 17:26:59;;;;;;;10.60;7.22;;;0.70;98.20;;;;;;8238720;28;20109;-73
2020/12/25 17:31:14;;;;;;;12.63;7.07;;;0.10;98.10;;;;;;8239044;28;20062;-73
2020/12/25 17:35:15;;;;;;;13.63;7.93;;;0.00;98.00;;;;;;8230989;28;20148;-73
2020/12/25 17:39:17;;;;;;;12.60;7.67;;;1.50;98.40;;;;;;8226476;28;20105;-73
2020/12/25 17:43:19;;;;;;;;;;;0.10;98.10;;;;;;8234875;28;21054;-72
2020/12/25 17:47:20;;;;;;;10.43;5.20;;;0.30;98.60;;;;;;8229653;28;20315;-72
2020/12/25 17:51:22;;;;;;;8.75;5.07;;;0.10;98.10;;;;;;8244407;28;20423;-72
2020/12/25 17:55:23;;;;;;;8.40;3.97;;;-0.20;98.10;;;;;;8240347;28;20474;-72
2020/12/25 17:59:25;;;;;;;10.88;5.15;;;0.70;98.30;;;;;;8227247;28;20062;-72
2020/12/25 18:03:26;;;;;;;17.45;7.15;;;-0.10;98.10;;;;;;8251373;28;20058;-72
2020/12/25 18:07:30;;;;;;;41.33;19.02;;;0.40;98.20;;;;;;8240286;28;20050;-72
2020/12/25 18:11:32;;;;;;;31.27;15.93;;;0.10;98.20;;;;;;8237758;28;20046;-72
2020/12/25 18:15:33;;;;;;;28.98;14.00;;;-0.20;98.10;;;;;;8222462;28;20084;-72
2020/12/25 18:19:37;;;;;;;24.15;12.23;;;-0.30;98.20;;;;;;8253103;28;20125;-72
2020/12/25 18:23:39;;;;;;;15.73;7.90;;;0.00;98.20;;;;;;8246556;28;20054;-72
2020/12/25 18:27:41;;;;;;;12.60;5.85;;;-0.30;98.10;;;;;;8220624;28;20043;-72
2020/12/25 18:31:42;;;;;;;;;;;-0.30;98.10;;;;;;8240809;28;20084;-72
2020/12/25 18:35:44;;;;;;;11.30;5.13;;;0.00;98.80;;;;;;8215849;28;20291;-72
2020/12/25 18:39:46;;;;;;;9.38;5.32;;;0.10;98.30;;;;;;8238562;28;20150;-73
2020/12/25 18:43:48;;;;;;;18.10;6.70;;;-0.30;98.20;;;;;;8249538;28;20090;-72
2020/12/25 18:47:49;;;;;;;15.18;7.82;;;-0.20;98.10;;;;;;8218885;28;20133;-72
2020/12/25 18:51:52;;;;;;;19.83;9.43;;;0.20;98.20;;;;;;8216394;28;20105;-72
2020/12/25 18:55:53;;;;;;;18.60;7.95;;;-0.50;98.10;;;;;;8240927;28;20058;-72
2020/12/25 18:59:54;;;;;;;15.37;7.43;;;-0.50;98.20;;;;;;8221940;28;20117;-72
2020/12/25 19:03:56;;;;;;;19.90;9.15;;;0.20;98.40;;;;;;8221331;28;20475;-72
2020/12/25 19:07:58;;;;;;;21.90;10.73;;;-0.50;98.30;;;;;;8237019;28;20058;-72
2020/12/25 19:12:00;;;;;;;26.02;11.52;;;-0.10;98.30;;;;;;8221909;28;20042;-72
2020/12/25 19:16:06;;;;;;;26.80;10.77;;;0.30;98.70;;;;;;8236323;28;20054;-72
2020/12/25 19:20:08;;;;;;;24.98;10.77;;;-0.50;98.50;;;;;;8220255;28;20050;-71
2020/12/25 19:24:09;;;;;;;28.13;11.18;;;-0.60;98.40;;;;;;8204570;28;20164;-71
2020/12/25 19:28:11;;;;;;;22.13;10.77;;;-0.40;98.10;;;;;;8231101;28;20414;-73
2020/12/25 19:32:13;;;;;;;21.30;9.90;;;-0.60;98.40;;;;;;8257453;28;20048;-74
2020/12/25 19:36:14;;;;;;;21.33;10.75;;;-0.60;98.20;;;;;;8221949;28;20097;-75
2020/12/25 19:40:16;;;;;;;23.63;11.30;;;-0.60;98.30;;;;;;8215186;28;20058;-75
2020/12/25 19:44:17;;;;;;;24.48;11.80;;;-0.30;98.40;;;;;;8220044;28;20058;-75
2020/12/25 19:48:19;;;;;;;31.75;14.10;;;-1.00;98.30;;;;;;8257362;28;20101;-75
2020/12/25 19:52:20;;;;;;;32.95;14.88;;;-1.00;98.20;;;;;;8232552;28;20050;-75
2020/12/25 19:56:26;;;;;;;18.33;10.18;;;-1.00;98.30;;;;;;8222221;28;20057;-76
2020/12/25 20:00:27;;;;;;;26.35;14.45;;;-0.90;97.90;;;;;;8229088;28;20470;-75
2020/12/25 20:04:29;;;;;;;46.20;21.80;;;-1.10;98.50;;;;;;8227327;28;20520;-75
2020/12/25 20:08:30;;;;;;;37.55;18.08;;;-1.00;98.40;;;;;;8224647;28;20444;-75
2020/12/25 20:12:34;;;;;;;16.00;8.60;;;-1.00;98.70;;;;;;8230803;28;20625;-74
2020/12/25 20:16:36;;;;;;;22.90;10.63;;;-1.10;98.50;;;;;;8216945;28;20062;-75
2020/12/25 20:20:37;;;;;;;23.77;11.03;;;-1.00;98.40;;;;;;8232173;28;20113;-75
2020/12/25 20:24:38;;;;;;;19.20;9.77;;;-1.00;98.40;;;;;;8224504;28;20465;-75
2020/12/25 20:28:41;;;;;;;22.52;10.63;;;-1.00;98.40;;;;;;8222446;28;20706;-74
2020/12/25 20:32:44;;;;;;;18.42;9.40;;;-0.40;98.90;;;;;;8253190;28;20503;-75
2020/12/25 20:36:45;;;;;;;14.10;7.20;;;-1.20;98.30;;;;;;8232873;28;20104;-73
2020/12/25 20:40:47;;;;;;;17.08;9.27;;;-1.10;98.20;;;;;;8235136;28;20058;-72
2020/12/25 20:44:48;;;;;;;11.98;5.47;;;-1.00;98.40;;;;;;8262002;28;20058;-73
2020/12/25 20:48:50;;;;;;;13.00;6.55;;;-1.00;98.30;;;;;;8220665;28;20129;-73
2020/12/25 20:52:51;;;;;;;13.77;6.80;;;-1.10;98.20;;;;;;8219285;28;20070;-73
2020/12/25 20:56:53;;;;;;;18.77;7.82;;;-1.00;98.20;;;;;;8212220;28;20054;-73
2020/12/25 21:00:54;;;;;;;15.30;6.05;;;-1.10;98.20;;;;;;8240308;28;20050;-74
2020/12/25 21:04:55;;;;;;;15.00;6.60;;;-1.00;98.20;;;;;;8235353;28;20055;-74
2020/12/25 21:08:57;;;;;;;32.67;11.52;;;-0.60;98.40;;;;;;8237216;28;20063;-74